Rm Calima I — HKNU3 — position and weather

sailwx.info

Track history (hours):
 
Tides and Currents Weather Stations Pressure Air Temp Water Temp Dewpoint Dewpoint Depression Visibility Wind Speed Wind Dir Waves Ship Positions

Rm Calima I

Last reported at 2018-Jan-18 23:12 UTC. Time now 2018-Jan-19 03:36 UTC.
Position N 10°58' W 074°46'.

Length 30 m; draft 4.2 m.

Type: Tug. MMSI: 730151081.

Date/timePositionNaut miles runAvg speedWind from/ knotsBaromVisibWave heightAir tempDewpointWater temp
2018-Jan-18 23:12N 10°58' W 074°46'0 0.0
2018-Jan-18 22:58N 10°58' W 074°46'0 0.0
2018-Jan-18 22:29N 10°58' W 074°46'0 0.0
2018-Jan-18 21:50N 10°58' W 074°46'0 0.0
2018-Jan-18 21:20N 10°58' W 074°46'0 0.0
2018-Jan-18 20:32N 10°58' W 074°46'0 0.1
2018-Jan-18 20:27N 10°58' W 074°46'0 0.0
2018-Jan-18 19:55N 10°58' W 074°46'0 0.0
2018-Jan-18 19:29N 10°58' W 074°46'0 0.0
2018-Jan-18 18:59N 10°58' W 074°46'0 0.0
2018-Jan-18 18:24N 10°58' W 074°46'0 0.0
2018-Jan-18 18:00N 10°58' W 074°46'0 0.0
2018-Jan-18 17:18N 10°58' W 074°46'1 4.2
2018-Jan-18 16:59N 10°59' W 074°46'1 1.5
2018-Jan-18 16:29N 10°59' W 074°46'1 0.3
2018-Jan-18 14:42N 10°58' W 074°46'0 0.0
2018-Jan-18 14:30N 10°58' W 074°46'0 0.0
2018-Jan-18 14:01N 10°58' W 074°46'0 0.6
2018-Jan-18 13:29N 10°58' W 074°45'4 7.6
2018-Jan-18 13:00N 11°02' W 074°47'1 2.3
2018-Jan-18 12:30N 11°01' W 074°46'3 5.7
2018-Jan-18 11:59N 10°58' W 074°46'0 0.0
2018-Jan-18 11:30N 10°58' W 074°46'0 0.0
2018-Jan-18 11:00N 10°58' W 074°46'0 0.0
2018-Jan-18 10:30N 10°58' W 074°46'0 0.0
2018-Jan-18 10:00N 10°58' W 074°46'0 0.4
2018-Jan-18 09:30N 10°58' W 074°45'0 0.4
2018-Jan-18 09:00N 10°58' W 074°46'0 0.0
2018-Jan-18 08:30N 10°58' W 074°46'0 0.0
2018-Jan-18 08:00N 10°58' W 074°46'0 0.0
2018-Jan-18 07:30N 10°58' W 074°46'0 0.0
2018-Jan-18 06:59N 10°58' W 074°46'0 0.4
2018-Jan-18 06:30N 10°58' W 074°45'0 0.3
2018-Jan-18 06:00N 10°58' W 074°46'0 0.0
2018-Jan-18 05:30N 10°58' W 074°46'0 0.0
2018-Jan-18 05:00N 10°58' W 074°46'0 0.2
2018-Jan-18 04:29N 10°58' W 074°45'1 1.9
2018-Jan-18 04:00N 10°59' W 074°45'  
2018-Jan-12 14:59N 10°58' W 074°46'0 0.0
2018-Jan-12 14:29N 10°58' W 074°46'0 0.0
2018-Jan-12 14:01N 10°58' W 074°46'0 0.0
2018-Jan-12 13:28N 10°58' W 074°46'0 0.0
2018-Jan-12 13:00N 10°58' W 074°46'0 0.0
2018-Jan-12 12:30N 10°58' W 074°46'0 0.0
2018-Jan-12 11:51N 10°58' W 074°46'0 0.0
2018-Jan-12 11:30N 10°58' W 074°46'0 0.0
2018-Jan-12 10:59N 10°58' W 074°46'0 0.0
2018-Jan-12 10:29N 10°58' W 074°46'0 0.0
2018-Jan-12 09:59N 10°58' W 074°46'0 0.0
2018-Jan-12 09:30N 10°58' W 074°46'0 0.0
2018-Jan-12 08:58N 10°58' W 074°46'0 0.7
2018-Jan-12 08:30N 10°58' W 074°45'0 0.9
2018-Jan-12 08:01N 10°58' W 074°45'0 0.3
2018-Jan-12 07:31N 10°58' W 074°46'0 0.0
2018-Jan-12 06:17N 10°58' W 074°46'0 1.3
2018-Jan-12 05:59N 10°58' W 074°45'0 0.3
2018-Jan-12 05:30N 10°58' W 074°46'0 0.1
2018-Jan-12 05:00N 10°58' W 074°45'0 0.5
2018-Jan-12 04:29N 10°58' W 074°46'0 0.0
2018-Jan-12 03:59N 10°58' W 074°46'0 0.0
2018-Jan-12 03:26N 10°58' W 074°46'0 0.0
2018-Jan-12 02:58N 10°58' W 074°46'0 0.0
2018-Jan-12 02:29N 10°58' W 074°46'0 0.0
2018-Jan-12 01:59N 10°58' W 074°46'0 0.0
2018-Jan-12 01:28N 10°58' W 074°46'0 0.0
2018-Jan-12 00:51N 10°58' W 074°46'0 0.0
2018-Jan-12 00:30N 10°58' W 074°46'0 0.0
2018-Jan-11 23:58N 10°58' W 074°46'0 0.0
2018-Jan-11 22:47N 10°58' W 074°46'0 0.0
2018-Jan-11 22:29N 10°58' W 074°46'0 0.0
2018-Jan-11 21:58N 10°58' W 074°46'0 0.0
2018-Jan-11 21:28N 10°58' W 074°46'0 0.0
2018-Jan-11 21:00N 10°58' W 074°46'0 0.1
2018-Jan-11 20:29N 10°58' W 074°45'3 7.0
2018-Jan-11 20:00N 11°01' W 074°47'2 4.3
2018-Jan-11 19:30N 11°02' W 074°49'0 0.6
2018-Jan-11 19:00N 11°03' W 074°49'4 7.5
2018-Jan-11 18:30N 11°00' W 074°46'2 3.7
2018-Jan-11 18:00N 10°59' W 074°45'1 0.8
2018-Jan-11 17:20N 10°58' W 074°46'0 0.0
2018-Jan-11 16:59N 10°58' W 074°46'0 0.6
2018-Jan-11 16:30N 10°58' W 074°45'0 0.6
2018-Jan-11 15:59N 10°58' W 074°46'0 0.0
2018-Jan-11 15:30N 10°58' W 074°46'0 0.0
2018-Jan-11 15:00N 10°58' W 074°46'0 0.0
2018-Jan-11 14:30N 10°58' W 074°46'0 0.0
2018-Jan-11 13:58N 10°58' W 074°46'0 0.0
2018-Jan-11 13:30N 10°58' W 074°46'0 0.6
2018-Jan-11 13:00N 10°58' W 074°45'0 0.6
2018-Jan-11 12:28N 10°58' W 074°46'0 0.0
2018-Jan-11 09:15N 10°58' W 074°46'0 0.0
2018-Jan-11 08:57N 10°58' W 074°46'1 3.0
2018-Jan-11 08:30N 10°60' W 074°46'0 0.0
2018-Jan-11 08:00N 10°60' W 074°46'1 1.5
2018-Jan-11 07:06N 10°58' W 074°46'0 0.0
2018-Jan-10 16:43N 10°58' W 074°46'0 0.0
2018-Jan-10 16:29N 10°58' W 074°46'0 0.0
2018-Jan-10 15:59N 10°58' W 074°46'0 0.0
2018-Jan-10 15:28N 10°58' W 074°46'0 0.0
2018-Jan-10 14:58N 10°58' W 074°46'0 0.0
2018-Jan-10 14:29N 10°58' W 074°46'0 0.0
2018-Jan-10 13:59N 10°58' W 074°46'0 0.0
2018-Jan-10 13:30N 10°58' W 074°46'0 0.0
2018-Jan-10 12:58N 10°58' W 074°46'0 0.0
2018-Jan-10 12:30N 10°58' W 074°46'0 0.4
2018-Jan-10 12:00N 10°58' W 074°45'1 1.2
2018-Jan-10 11:29N 10°59' W 074°45'0 0.0
2018-Jan-10 00:55N 10°58' W 074°46'1 0.2
2018-Jan-09 16:14N 10°60' W 074°46'1 0.3
2018-Jan-09 12:08N 10°58' W 074°46'0 0.0
2018-Jan-09 11:26N 10°58' W 074°46'  
Track history (hours):
 
Tides and Currents Weather Stations Pressure Air Temp Water Temp Dewpoint Dewpoint Depression Visibility Wind Speed Wind Dir Waves Ship Positions

Rm Calima I

Last reported at 2018-Jan-18 23:12 UTC. Time now 2018-Jan-19 03:36 UTC.
Position N 10°58' W 074°46'.

Length 30 m; draft 4.2 m.

Type: Tug. MMSI: 730151081.

Date/timePositionNaut miles runAvg speedWind from/ knotsBaromVisibWave heightAir tempDewpointWater temp
2018-Jan-18 23:12N 10°58' W 074°46'0 0.0
2018-Jan-18 22:58N 10°58' W 074°46'0 0.0
2018-Jan-18 22:29N 10°58' W 074°46'0 0.0
2018-Jan-18 21:50N 10°58' W 074°46'0 0.0
2018-Jan-18 21:20N 10°58' W 074°46'0 0.0
2018-Jan-18 20:32N 10°58' W 074°46'0 0.1
2018-Jan-18 20:27N 10°58' W 074°46'0 0.0
2018-Jan-18 19:55N 10°58' W 074°46'0 0.0
2018-Jan-18 19:29N 10°58' W 074°46'0 0.0
2018-Jan-18 18:59N 10°58' W 074°46'0 0.0
2018-Jan-18 18:24N 10°58' W 074°46'0 0.0
2018-Jan-18 18:00N 10°58' W 074°46'0 0.0
2018-Jan-18 17:18N 10°58' W 074°46'1 4.2
2018-Jan-18 16:59N 10°59' W 074°46'1 1.5
2018-Jan-18 16:29N 10°59' W 074°46'1 0.3
2018-Jan-18 14:42N 10°58' W 074°46'0 0.0
2018-Jan-18 14:30N 10°58' W 074°46'0 0.0
2018-Jan-18 14:01N 10°58' W 074°46'0 0.6
2018-Jan-18 13:29N 10°58' W 074°45'4 7.6
2018-Jan-18 13:00N 11°02' W 074°47'1 2.3
2018-Jan-18 12:30N 11°01' W 074°46'3 5.7
2018-Jan-18 11:59N 10°58' W 074°46'0 0.0
2018-Jan-18 11:30N 10°58' W 074°46'0 0.0
2018-Jan-18 11:00N 10°58' W 074°46'0 0.0
2018-Jan-18 10:30N 10°58' W 074°46'0 0.0
2018-Jan-18 10:00N 10°58' W 074°46'0 0.4
2018-Jan-18 09:30N 10°58' W 074°45'0 0.4
2018-Jan-18 09:00N 10°58' W 074°46'0 0.0
2018-Jan-18 08:30N 10°58' W 074°46'0 0.0
2018-Jan-18 08:00N 10°58' W 074°46'0 0.0
2018-Jan-18 07:30N 10°58' W 074°46'0 0.0
2018-Jan-18 06:59N 10°58' W 074°46'0 0.4
2018-Jan-18 06:30N 10°58' W 074°45'0 0.3
2018-Jan-18 06:00N 10°58' W 074°46'0 0.0
2018-Jan-18 05:30N 10°58' W 074°46'0 0.0
2018-Jan-18 05:00N 10°58' W 074°46'0 0.2
2018-Jan-18 04:29N 10°58' W 074°45'1 1.9
2018-Jan-18 04:00N 10°59' W 074°45'  
2018-Jan-12 14:59N 10°58' W 074°46'0 0.0
2018-Jan-12 14:29N 10°58' W 074°46'0 0.0
2018-Jan-12 14:01N 10°58' W 074°46'0 0.0
2018-Jan-12 13:28N 10°58' W 074°46'0 0.0
2018-Jan-12 13:00N 10°58' W 074°46'0 0.0
2018-Jan-12 12:30N 10°58' W 074°46'0 0.0
2018-Jan-12 11:51N 10°58' W 074°46'0 0.0
2018-Jan-12 11:30N 10°58' W 074°46'0 0.0
2018-Jan-12 10:59N 10°58' W 074°46'0 0.0
2018-Jan-12 10:29N 10°58' W 074°46'0 0.0
2018-Jan-12 09:59N 10°58' W 074°46'0 0.0
2018-Jan-12 09:30N 10°58' W 074°46'0 0.0
2018-Jan-12 08:58N 10°58' W 074°46'0 0.7
2018-Jan-12 08:30N 10°58' W 074°45'0 0.9
2018-Jan-12 08:01N 10°58' W 074°45'0 0.3
2018-Jan-12 07:31N 10°58' W 074°46'0 0.0
2018-Jan-12 06:17N 10°58' W 074°46'0 1.3
2018-Jan-12 05:59N 10°58' W 074°45'0 0.3
2018-Jan-12 05:30N 10°58' W 074°46'0 0.1
2018-Jan-12 05:00N 10°58' W 074°45'0 0.5
2018-Jan-12 04:29N 10°58' W 074°46'0 0.0
2018-Jan-12 03:59N 10°58' W 074°46'0 0.0
2018-Jan-12 03:26N 10°58' W 074°46'0 0.0
2018-Jan-12 02:58N 10°58' W 074°46'0 0.0
2018-Jan-12 02:29N 10°58' W 074°46'0 0.0
2018-Jan-12 01:59N 10°58' W 074°46'0 0.0
2018-Jan-12 01:28N 10°58' W 074°46'0 0.0
2018-Jan-12 00:51N 10°58' W 074°46'0 0.0
2018-Jan-12 00:30N 10°58' W 074°46'0 0.0
2018-Jan-11 23:58N 10°58' W 074°46'0 0.0
2018-Jan-11 22:47N 10°58' W 074°46'0 0.0
2018-Jan-11 22:29N 10°58' W 074°46'0 0.0
2018-Jan-11 21:58N 10°58' W 074°46'0 0.0
2018-Jan-11 21:28N 10°58' W 074°46'0 0.0
2018-Jan-11 21:00N 10°58' W 074°46'0 0.1
2018-Jan-11 20:29N 10°58' W 074°45'3 7.0
2018-Jan-11 20:00N 11°01' W 074°47'2 4.3
2018-Jan-11 19:30N 11°02' W 074°49'0 0.6
2018-Jan-11 19:00N 11°03' W 074°49'4 7.5
2018-Jan-11 18:30N 11°00' W 074°46'2 3.7
2018-Jan-11 18:00N 10°59' W 074°45'1 0.8
2018-Jan-11 17:20N 10°58' W 074°46'0 0.0
2018-Jan-11 16:59N 10°58' W 074°46'0 0.6
2018-Jan-11 16:30N 10°58' W 074°45'0 0.6
2018-Jan-11 15:59N 10°58' W 074°46'0 0.0
2018-Jan-11 15:30N 10°58' W 074°46'0 0.0
2018-Jan-11 15:00N 10°58' W 074°46'0 0.0
2018-Jan-11 14:30N 10°58' W 074°46'0 0.0
2018-Jan-11 13:58N 10°58' W 074°46'0 0.0
2018-Jan-11 13:30N 10°58' W 074°46'0 0.6
2018-Jan-11 13:00N 10°58' W 074°45'0 0.6
2018-Jan-11 12:28N 10°58' W 074°46'0 0.0
2018-Jan-11 09:15N 10°58' W 074°46'0 0.0
2018-Jan-11 08:57N 10°58' W 074°46'1 3.0
2018-Jan-11 08:30N 10°60' W 074°46'0 0.0
2018-Jan-11 08:00N 10°60' W 074°46'1 1.5
2018-Jan-11 07:06N 10°58' W 074°46'0 0.0
2018-Jan-10 16:43N 10°58' W 074°46'0 0.0
2018-Jan-10 16:29N 10°58' W 074°46'0 0.0
2018-Jan-10 15:59N 10°58' W 074°46'0 0.0
2018-Jan-10 15:28N 10°58' W 074°46'0 0.0
2018-Jan-10 14:58N 10°58' W 074°46'0 0.0
2018-Jan-10 14:29N 10°58' W 074°46'0 0.0
2018-Jan-10 13:59N 10°58' W 074°46'0 0.0
2018-Jan-10 13:30N 10°58' W 074°46'0 0.0
2018-Jan-10 12:58N 10°58' W 074°46'0 0.0
2018-Jan-10 12:30N 10°58' W 074°46'0 0.4
2018-Jan-10 12:00N 10°58' W 074°45'1 1.2
2018-Jan-10 11:29N 10°59' W 074°45'0 0.0
2018-Jan-10 00:55N 10°58' W 074°46'1 0.2
2018-Jan-09 16:14N 10°60' W 074°46'1 0.3
2018-Jan-09 12:08N 10°58' W 074°46'0 0.0
2018-Jan-09 11:26N 10°58' W 074°46'  

Dump ship's entire track history